Zefira — 9HA2459 — position and weather

sailwx.info

Track history (hours):
 
Tides and Currents Weather Stations Pressure Air Temp Water Temp Dewpoint Dewpoint Depression Visibility Wind Speed Wind Dir Waves Ship Positions

Zefira

Last reported at 2014-Aug-16 08:14 UTC. Time now 2014-Aug-22 02:04 UTC.
Position N 35°52' E 027°48'.

Length 50 m; draft 4.9 m.

Type: Pleasure craft. MMSI: 248663000.

Date/timePositionNaut miles runAvg speedWind from/ knotsBaromVisibWave heightAir tempDewpointWater temp
2014-Aug-16 08:14N 35°52' E 027°48'7 9.7
2014-Aug-16 07:32N 35°53' E 027°40'1010.1
2014-Aug-16 06:33N 35°58' E 027°29'2310.0
2014-Aug-16 04:18N 36°07' E 027°03'12 9.9
2014-Aug-16 03:05N 36°12' E 026°50'510.0
2014-Aug-16 02:33N 36°14' E 026°44'1010.0
2014-Aug-16 01:33N 36°19' E 026°33'10 9.9
2014-Aug-16 00:33N 36°24' E 026°22'10 9.5
2014-Aug-15 23:32N 36°29' E 026°12'9 9.6
2014-Aug-15 22:33N 36°34' E 026°02'1010.1
2014-Aug-15 21:33N 36°40' E 025°52'1010.0
2014-Aug-15 20:33N 36°46' E 025°42'10 8.8
2014-Aug-15 19:26N 36°54' E 025°35'0 0.0
2014-Aug-15 18:20N 36°55' E 025°35'0 0.0
2014-Aug-15 17:32N 36°55' E 025°35'0 0.0
2014-Aug-15 16:32N 36°55' E 025°35'0 0.0
2014-Aug-15 15:32N 36°55' E 025°35'0 0.0
2014-Aug-15 14:32N 36°55' E 025°35'0 0.0
2014-Aug-15 13:33N 36°55' E 025°35'0 0.0
2014-Aug-15 12:32N 36°55' E 025°35'0 0.0
2014-Aug-15 11:32N 36°55' E 025°35'0 0.0
2014-Aug-15 10:32N 36°54' E 025°35'0 0.0
2014-Aug-15 09:32N 36°55' E 025°35'0 0.0
2014-Aug-15 08:33N 36°54' E 025°35'0 0.0
2014-Aug-15 07:20N 36°55' E 025°35'0 0.0
2014-Aug-15 06:32N 36°55' E 025°35'0 0.0
2014-Aug-15 05:32N 36°55' E 025°35'0 0.0
2014-Aug-15 04:32N 36°55' E 025°35'0 0.0
2014-Aug-15 03:26N 36°54' E 025°35'0 0.0
2014-Aug-15 02:32N 36°54' E 025°35'0 0.0
2014-Aug-15 01:32N 36°54' E 025°35'0 0.0
2014-Aug-15 00:32N 36°55' E 025°35'0 0.0
2014-Aug-14 23:32N 36°55' E 025°35'0 0.0
2014-Aug-14 22:32N 36°55' E 025°35'0 0.0
2014-Aug-14 21:32N 36°54' E 025°35'0 0.0
2014-Aug-14 20:27N 36°54' E 025°35'0 0.1
2014-Aug-14 19:32N 36°55' E 025°35'0 0.0
2014-Aug-14 18:32N 36°55' E 025°35'0 0.0
2014-Aug-14 17:32N 36°54' E 025°35'0 0.0
2014-Aug-14 16:26N 36°54' E 025°35'0 0.0
2014-Aug-14 15:32N 36°54' E 025°35'0 0.0
2014-Aug-14 14:32N 36°54' E 025°35'0 0.0
2014-Aug-14 13:32N 36°54' E 025°35'0 0.0
2014-Aug-14 12:32N 36°54' E 025°35'0 0.0
2014-Aug-14 11:32N 36°54' E 025°35'0 0.0
2014-Aug-14 10:32N 36°54' E 025°35'0 0.0
2014-Aug-14 09:32N 36°54' E 025°35'3 3.1
2014-Aug-14 08:34N 36°52' E 025°34'2 1.6
2014-Aug-14 07:32N 36°51' E 025°32'0 0.0
2014-Aug-14 06:32N 36°51' E 025°32'0 0.0
2014-Aug-14 05:30N 36°51' E 025°32'0 0.0
2014-Aug-14 04:33N 36°51' E 025°32'0 0.0
2014-Aug-14 03:26N 36°51' E 025°32'0 0.0
2014-Aug-14 02:32N 36°51' E 025°32'0 0.0
2014-Aug-14 01:33N 36°51' E 025°32'0 0.0
2014-Aug-14 00:30N 36°51' E 025°32'0 0.0
2014-Aug-13 23:33N 36°51' E 025°32'0 0.0
2014-Aug-13 22:30N 36°51' E 025°32'0 0.0
2014-Aug-13 21:20N 36°51' E 025°32'0 0.0
2014-Aug-13 20:32N 36°51' E 025°32'0 0.0
2014-Aug-13 19:32N 36°51' E 025°32'0 0.0
2014-Aug-13 18:32N 36°51' E 025°32'0 0.0
2014-Aug-13 17:33N 36°51' E 025°32'0 0.0
2014-Aug-13 16:32N 36°51' E 025°32'0 0.0
2014-Aug-13 15:32N 36°51' E 025°32'0 0.0
2014-Aug-13 14:33N 36°51' E 025°32'0 0.0
2014-Aug-13 13:20N 36°51' E 025°32'0 0.0
2014-Aug-13 12:26N 36°51' E 025°32'0 0.0
2014-Aug-13 11:32N 36°51' E 025°32'0 0.0
2014-Aug-13 10:32N 36°51' E 025°32'0 0.0
2014-Aug-13 09:33N 36°51' E 025°32'0 0.0
2014-Aug-13 08:33N 36°51' E 025°32'0 0.0
2014-Aug-13 07:32N 36°51' E 025°32'0 0.0
2014-Aug-13 06:32N 36°51' E 025°32'0 0.0
2014-Aug-13 05:33N 36°51' E 025°32'0 0.0
2014-Aug-13 04:32N 36°51' E 025°32'0 0.0
2014-Aug-13 03:32N 36°51' E 025°32'0 0.0
2014-Aug-13 02:33N 36°51' E 025°32'0 0.0
2014-Aug-13 01:33N 36°51' E 025°32'0 0.0
2014-Aug-13 00:32N 36°51' E 025°32'0 0.0
2014-Aug-12 23:33N 36°51' E 025°32'0 0.0
2014-Aug-12 22:33N 36°51' E 025°32'0 0.0
2014-Aug-12 21:33N 36°51' E 025°32'0 0.0
2014-Aug-12 20:32N 36°51' E 025°32'0 0.0
2014-Aug-12 19:33N 36°51' E 025°32'0 0.0
2014-Aug-12 18:26N 36°51' E 025°32'1 1.4
2014-Aug-12 17:33N 36°50' E 025°32'3 2.1
2014-Aug-12 16:13N 36°51' E 025°29'0 0.0
2014-Aug-12 15:31N 36°51' E 025°29'0 0.0
2014-Aug-12 14:25N 36°51' E 025°29'0 0.0
2014-Aug-12 13:25N 36°51' E 025°29'0 0.0
2014-Aug-12 12:19N 36°51' E 025°29'0 0.0
2014-Aug-12 11:25N 36°51' E 025°29'0 0.0
2014-Aug-12 10:25N 36°51' E 025°29'0 0.1
2014-Aug-12 09:32N 36°51' E 025°29'8 8.6
2014-Aug-12 08:33N 36°54' E 025°19'1111.5
2014-Aug-12 07:33N 36°56' E 025°04'3 3.0
2014-Aug-12 06:32N 36°58' E 025°02'0 0.0
2014-Aug-12 05:32N 36°58' E 025°02'0 0.0
2014-Aug-12 04:32N 36°58' E 025°02'0 0.0
2014-Aug-12 03:32N 36°58' E 025°02'0 0.0
2014-Aug-12 02:32N 36°58' E 025°02'0 0.0
2014-Aug-12 01:32N 36°58' E 025°02'0 0.0
2014-Aug-12 00:32N 36°58' E 025°02'0 0.0
2014-Aug-11 23:32N 36°58' E 025°02'0 0.0
2014-Aug-11 22:32N 36°58' E 025°02'0 0.0
2014-Aug-11 21:32N 36°58' E 025°02'0 0.0
2014-Aug-11 20:32N 36°58' E 025°02'0 0.0
2014-Aug-11 19:32N 36°58' E 025°02'0 0.0
2014-Aug-11 18:32N 36°58' E 025°02'0 0.0
2014-Aug-11 17:32N 36°58' E 025°02'0 0.0
2014-Aug-11 16:32N 36°58' E 025°02'0 0.0
2014-Aug-11 15:32N 36°58' E 025°02'0 0.0
2014-Aug-11 14:32N 36°58' E 025°02'0 0.0
2014-Aug-11 13:32N 36°58' E 025°02'4 4.4
2014-Aug-11 12:33N 36°57' E 025°07'8 8.4
2014-Aug-11 11:33N 37°01' E 025°17'9 9.4
2014-Aug-11 10:33N 37°10' E 025°16'2 2.2
2014-Aug-11 09:33N 37°08' E 025°14'0 0.0
2014-Aug-11 08:33N 37°08' E 025°14'0 0.0
2014-Aug-11 07:32N 37°08' E 025°14'0 0.0
2014-Aug-11 06:33N 37°08' E 025°14'0 0.0
2014-Aug-11 05:33N 37°08' E 025°14'0 0.0
2014-Aug-11 04:33N 37°08' E 025°14'0 0.0
2014-Aug-11 03:32N 37°08' E 025°14'0 0.0
2014-Aug-11 02:32N 37°08' E 025°14'0 0.0
2014-Aug-11 01:32N 37°08' E 025°14'0 0.0
2014-Aug-11 00:33N 37°08' E 025°14'0 0.0
2014-Aug-10 23:33N 37°08' E 025°14'0 0.0
2014-Aug-10 22:32N 37°08' E 025°14'0 0.0
2014-Aug-10 21:27N 37°08' E 025°14'0 0.0
2014-Aug-10 20:33N 37°08' E 025°14'0 0.0
2014-Aug-10 19:33N 37°08' E 025°14'0 0.0
2014-Aug-10 18:33N 37°08' E 025°14'0 0.0
2014-Aug-10 17:33N 37°08' E 025°14'0 0.0
2014-Aug-10 16:33N 37°08' E 025°14'0 0.0
2014-Aug-10 15:33N 37°08' E 025°14'9 8.8
2014-Aug-10 14:33N 37°17' E 025°17'8 8.0
2014-Aug-10 13:33N 37°25' E 025°19'0 0.1
2014-Aug-10 12:33N 37°25' E 025°19'0 0.0
2014-Aug-10 11:33N 37°25' E 025°19'0 0.0
2014-Aug-10 10:33N 37°25' E 025°19'0 0.0
2014-Aug-10 09:33N 37°25' E 025°19'0 0.0
2014-Aug-10 08:33N 37°25' E 025°19'0 0.0
2014-Aug-10 07:33N 37°25' E 025°19'0 0.0
2014-Aug-10 06:33N 37°25' E 025°19'0 0.0
2014-Aug-10 05:33N 37°25' E 025°19'0 0.0
2014-Aug-10 04:33N 37°25' E 025°19'0 0.0
2014-Aug-10 03:33N 37°25' E 025°19'0 0.0
2014-Aug-10 02:30N 37°25' E 025°19'0 0.0
2014-Aug-10 01:33N 37°25' E 025°19'0 0.0
2014-Aug-10 00:33N 37°25' E 025°19'0 0.0
2014-Aug-09 23:33N 37°25' E 025°19'0 0.0
2014-Aug-09 22:33N 37°25' E 025°19'0 0.0
2014-Aug-09 21:33N 37°25' E 025°19'0 0.0
2014-Aug-09 20:33N 37°25' E 025°19'0 0.0
2014-Aug-09 19:33N 37°25' E 025°19'0 0.0
2014-Aug-09 18:33N 37°25' E 025°19'0 0.0
2014-Aug-09 17:33N 37°25' E 025°19'0 0.0
2014-Aug-09 16:33N 37°25' E 025°19'0 0.0
2014-Aug-09 15:33N 37°25' E 025°19'0 0.0
2014-Aug-09 14:33N 37°25' E 025°19'0 0.0
2014-Aug-09 13:33N 37°25' E 025°19'0 0.0
2014-Aug-09 12:33N 37°25' E 025°19'0 0.0
2014-Aug-09 11:33N 37°25' E 025°19'0 0.0
2014-Aug-09 10:33N 37°25' E 025°19'0 0.0
2014-Aug-09 09:27N 37°25' E 025°19'0 0.0
2014-Aug-09 08:33N 37°25' E 025°19'0 0.0
2014-Aug-09 07:33N 37°25' E 025°19'0 0.0
2014-Aug-09 06:33N 37°25' E 025°19'0 0.0
2014-Aug-09 05:33N 37°25' E 025°19'0 0.0
2014-Aug-09 04:33N 37°25' E 025°19'0 0.0
2014-Aug-09 03:34N 37°25' E 025°19'5 4.9
2014-Aug-09 02:33N 37°22' E 025°15'9 9.0
2014-Aug-09 01:33N 37°16' E 025°06'9 9.4
2014-Aug-09 00:33N 37°09' E 024°58'9 9.5
2014-Aug-08 23:33N 37°01' E 024°52'10 9.9
2014-Aug-08 22:33N 36°53' E 024°44'13 0.3
2014-Aug-07 09:08N 36°47' E 024°30'5 5.1
2014-Aug-07 08:14N 36°43' E 024°26'  
Track history (hours):
 
Tides and Currents Weather Stations Pressure Air Temp Water Temp Dewpoint Dewpoint Depression Visibility Wind Speed Wind Dir Waves Ship Positions

Zefira

Last reported at 2014-Aug-16 08:14 UTC. Time now 2014-Aug-22 02:04 UTC.
Position N 35°52' E 027°48'.

Length 50 m; draft 4.9 m.

Type: Pleasure craft. MMSI: 248663000.

Date/timePositionNaut miles runAvg speedWind from/ knotsBaromVisibWave heightAir tempDewpointWater temp
2014-Aug-16 08:14N 35°52' E 027°48'7 9.7
2014-Aug-16 07:32N 35°53' E 027°40'1010.1
2014-Aug-16 06:33N 35°58' E 027°29'2310.0
2014-Aug-16 04:18N 36°07' E 027°03'12 9.9
2014-Aug-16 03:05N 36°12' E 026°50'510.0
2014-Aug-16 02:33N 36°14' E 026°44'1010.0
2014-Aug-16 01:33N 36°19' E 026°33'10 9.9
2014-Aug-16 00:33N 36°24' E 026°22'10 9.5
2014-Aug-15 23:32N 36°29' E 026°12'9 9.6
2014-Aug-15 22:33N 36°34' E 026°02'1010.1
2014-Aug-15 21:33N 36°40' E 025°52'1010.0
2014-Aug-15 20:33N 36°46' E 025°42'10 8.8
2014-Aug-15 19:26N 36°54' E 025°35'0 0.0
2014-Aug-15 18:20N 36°55' E 025°35'0 0.0
2014-Aug-15 17:32N 36°55' E 025°35'0 0.0
2014-Aug-15 16:32N 36°55' E 025°35'0 0.0
2014-Aug-15 15:32N 36°55' E 025°35'0 0.0
2014-Aug-15 14:32N 36°55' E 025°35'0 0.0
2014-Aug-15 13:33N 36°55' E 025°35'0 0.0
2014-Aug-15 12:32N 36°55' E 025°35'0 0.0
2014-Aug-15 11:32N 36°55' E 025°35'0 0.0
2014-Aug-15 10:32N 36°54' E 025°35'0 0.0
2014-Aug-15 09:32N 36°55' E 025°35'0 0.0
2014-Aug-15 08:33N 36°54' E 025°35'0 0.0
2014-Aug-15 07:20N 36°55' E 025°35'0 0.0
2014-Aug-15 06:32N 36°55' E 025°35'0 0.0
2014-Aug-15 05:32N 36°55' E 025°35'0 0.0
2014-Aug-15 04:32N 36°55' E 025°35'0 0.0
2014-Aug-15 03:26N 36°54' E 025°35'0 0.0
2014-Aug-15 02:32N 36°54' E 025°35'0 0.0
2014-Aug-15 01:32N 36°54' E 025°35'0 0.0
2014-Aug-15 00:32N 36°55' E 025°35'0 0.0
2014-Aug-14 23:32N 36°55' E 025°35'0 0.0
2014-Aug-14 22:32N 36°55' E 025°35'0 0.0
2014-Aug-14 21:32N 36°54' E 025°35'0 0.0
2014-Aug-14 20:27N 36°54' E 025°35'0 0.1
2014-Aug-14 19:32N 36°55' E 025°35'0 0.0
2014-Aug-14 18:32N 36°55' E 025°35'0 0.0
2014-Aug-14 17:32N 36°54' E 025°35'0 0.0
2014-Aug-14 16:26N 36°54' E 025°35'0 0.0
2014-Aug-14 15:32N 36°54' E 025°35'0 0.0
2014-Aug-14 14:32N 36°54' E 025°35'0 0.0
2014-Aug-14 13:32N 36°54' E 025°35'0 0.0
2014-Aug-14 12:32N 36°54' E 025°35'0 0.0
2014-Aug-14 11:32N 36°54' E 025°35'0 0.0
2014-Aug-14 10:32N 36°54' E 025°35'0 0.0
2014-Aug-14 09:32N 36°54' E 025°35'3 3.1
2014-Aug-14 08:34N 36°52' E 025°34'2 1.6
2014-Aug-14 07:32N 36°51' E 025°32'0 0.0
2014-Aug-14 06:32N 36°51' E 025°32'0 0.0
2014-Aug-14 05:30N 36°51' E 025°32'0 0.0
2014-Aug-14 04:33N 36°51' E 025°32'0 0.0
2014-Aug-14 03:26N 36°51' E 025°32'0 0.0
2014-Aug-14 02:32N 36°51' E 025°32'0 0.0
2014-Aug-14 01:33N 36°51' E 025°32'0 0.0
2014-Aug-14 00:30N 36°51' E 025°32'0 0.0
2014-Aug-13 23:33N 36°51' E 025°32'0 0.0
2014-Aug-13 22:30N 36°51' E 025°32'0 0.0
2014-Aug-13 21:20N 36°51' E 025°32'0 0.0
2014-Aug-13 20:32N 36°51' E 025°32'0 0.0
2014-Aug-13 19:32N 36°51' E 025°32'0 0.0
2014-Aug-13 18:32N 36°51' E 025°32'0 0.0
2014-Aug-13 17:33N 36°51' E 025°32'0 0.0
2014-Aug-13 16:32N 36°51' E 025°32'0 0.0
2014-Aug-13 15:32N 36°51' E 025°32'0 0.0
2014-Aug-13 14:33N 36°51' E 025°32'0 0.0
2014-Aug-13 13:20N 36°51' E 025°32'0 0.0
2014-Aug-13 12:26N 36°51' E 025°32'0 0.0
2014-Aug-13 11:32N 36°51' E 025°32'0 0.0
2014-Aug-13 10:32N 36°51' E 025°32'0 0.0
2014-Aug-13 09:33N 36°51' E 025°32'0 0.0
2014-Aug-13 08:33N 36°51' E 025°32'0 0.0
2014-Aug-13 07:32N 36°51' E 025°32'0 0.0
2014-Aug-13 06:32N 36°51' E 025°32'0 0.0
2014-Aug-13 05:33N 36°51' E 025°32'0 0.0
2014-Aug-13 04:32N 36°51' E 025°32'0 0.0
2014-Aug-13 03:32N 36°51' E 025°32'0 0.0
2014-Aug-13 02:33N 36°51' E 025°32'0 0.0
2014-Aug-13 01:33N 36°51' E 025°32'0 0.0
2014-Aug-13 00:32N 36°51' E 025°32'0 0.0
2014-Aug-12 23:33N 36°51' E 025°32'0 0.0
2014-Aug-12 22:33N 36°51' E 025°32'0 0.0
2014-Aug-12 21:33N 36°51' E 025°32'0 0.0
2014-Aug-12 20:32N 36°51' E 025°32'0 0.0
2014-Aug-12 19:33N 36°51' E 025°32'0 0.0
2014-Aug-12 18:26N 36°51' E 025°32'1 1.4
2014-Aug-12 17:33N 36°50' E 025°32'3 2.1
2014-Aug-12 16:13N 36°51' E 025°29'0 0.0
2014-Aug-12 15:31N 36°51' E 025°29'0 0.0
2014-Aug-12 14:25N 36°51' E 025°29'0 0.0
2014-Aug-12 13:25N 36°51' E 025°29'0 0.0
2014-Aug-12 12:19N 36°51' E 025°29'0 0.0
2014-Aug-12 11:25N 36°51' E 025°29'0 0.0
2014-Aug-12 10:25N 36°51' E 025°29'0 0.1
2014-Aug-12 09:32N 36°51' E 025°29'8 8.6
2014-Aug-12 08:33N 36°54' E 025°19'1111.5
2014-Aug-12 07:33N 36°56' E 025°04'3 3.0
2014-Aug-12 06:32N 36°58' E 025°02'0 0.0
2014-Aug-12 05:32N 36°58' E 025°02'0 0.0
2014-Aug-12 04:32N 36°58' E 025°02'0 0.0
2014-Aug-12 03:32N 36°58' E 025°02'0 0.0
2014-Aug-12 02:32N 36°58' E 025°02'0 0.0
2014-Aug-12 01:32N 36°58' E 025°02'0 0.0
2014-Aug-12 00:32N 36°58' E 025°02'0 0.0
2014-Aug-11 23:32N 36°58' E 025°02'0 0.0
2014-Aug-11 22:32N 36°58' E 025°02'0 0.0
2014-Aug-11 21:32N 36°58' E 025°02'0 0.0
2014-Aug-11 20:32N 36°58' E 025°02'0 0.0
2014-Aug-11 19:32N 36°58' E 025°02'0 0.0
2014-Aug-11 18:32N 36°58' E 025°02'0 0.0
2014-Aug-11 17:32N 36°58' E 025°02'0 0.0
2014-Aug-11 16:32N 36°58' E 025°02'0 0.0
2014-Aug-11 15:32N 36°58' E 025°02'0 0.0
2014-Aug-11 14:32N 36°58' E 025°02'0 0.0
2014-Aug-11 13:32N 36°58' E 025°02'4 4.4
2014-Aug-11 12:33N 36°57' E 025°07'8 8.4
2014-Aug-11 11:33N 37°01' E 025°17'9 9.4
2014-Aug-11 10:33N 37°10' E 025°16'2 2.2
2014-Aug-11 09:33N 37°08' E 025°14'0 0.0
2014-Aug-11 08:33N 37°08' E 025°14'0 0.0
2014-Aug-11 07:32N 37°08' E 025°14'0 0.0
2014-Aug-11 06:33N 37°08' E 025°14'0 0.0
2014-Aug-11 05:33N 37°08' E 025°14'0 0.0
2014-Aug-11 04:33N 37°08' E 025°14'0 0.0
2014-Aug-11 03:32N 37°08' E 025°14'0 0.0
2014-Aug-11 02:32N 37°08' E 025°14'0 0.0
2014-Aug-11 01:32N 37°08' E 025°14'0 0.0
2014-Aug-11 00:33N 37°08' E 025°14'0 0.0
2014-Aug-10 23:33N 37°08' E 025°14'0 0.0
2014-Aug-10 22:32N 37°08' E 025°14'0 0.0
2014-Aug-10 21:27N 37°08' E 025°14'0 0.0
2014-Aug-10 20:33N 37°08' E 025°14'0 0.0
2014-Aug-10 19:33N 37°08' E 025°14'0 0.0
2014-Aug-10 18:33N 37°08' E 025°14'0 0.0
2014-Aug-10 17:33N 37°08' E 025°14'0 0.0
2014-Aug-10 16:33N 37°08' E 025°14'0 0.0
2014-Aug-10 15:33N 37°08' E 025°14'9 8.8
2014-Aug-10 14:33N 37°17' E 025°17'8 8.0
2014-Aug-10 13:33N 37°25' E 025°19'0 0.1
2014-Aug-10 12:33N 37°25' E 025°19'0 0.0
2014-Aug-10 11:33N 37°25' E 025°19'0 0.0
2014-Aug-10 10:33N 37°25' E 025°19'0 0.0
2014-Aug-10 09:33N 37°25' E 025°19'0 0.0
2014-Aug-10 08:33N 37°25' E 025°19'0 0.0
2014-Aug-10 07:33N 37°25' E 025°19'0 0.0
2014-Aug-10 06:33N 37°25' E 025°19'0 0.0
2014-Aug-10 05:33N 37°25' E 025°19'0 0.0
2014-Aug-10 04:33N 37°25' E 025°19'0 0.0
2014-Aug-10 03:33N 37°25' E 025°19'0 0.0
2014-Aug-10 02:30N 37°25' E 025°19'0 0.0
2014-Aug-10 01:33N 37°25' E 025°19'0 0.0
2014-Aug-10 00:33N 37°25' E 025°19'0 0.0
2014-Aug-09 23:33N 37°25' E 025°19'0 0.0
2014-Aug-09 22:33N 37°25' E 025°19'0 0.0
2014-Aug-09 21:33N 37°25' E 025°19'0 0.0
2014-Aug-09 20:33N 37°25' E 025°19'0 0.0
2014-Aug-09 19:33N 37°25' E 025°19'0 0.0
2014-Aug-09 18:33N 37°25' E 025°19'0 0.0
2014-Aug-09 17:33N 37°25' E 025°19'0 0.0
2014-Aug-09 16:33N 37°25' E 025°19'0 0.0
2014-Aug-09 15:33N 37°25' E 025°19'0 0.0
2014-Aug-09 14:33N 37°25' E 025°19'0 0.0
2014-Aug-09 13:33N 37°25' E 025°19'0 0.0
2014-Aug-09 12:33N 37°25' E 025°19'0 0.0
2014-Aug-09 11:33N 37°25' E 025°19'0 0.0
2014-Aug-09 10:33N 37°25' E 025°19'0 0.0
2014-Aug-09 09:27N 37°25' E 025°19'0 0.0
2014-Aug-09 08:33N 37°25' E 025°19'0 0.0
2014-Aug-09 07:33N 37°25' E 025°19'0 0.0
2014-Aug-09 06:33N 37°25' E 025°19'0 0.0
2014-Aug-09 05:33N 37°25' E 025°19'0 0.0
2014-Aug-09 04:33N 37°25' E 025°19'0 0.0
2014-Aug-09 03:34N 37°25' E 025°19'5 4.9
2014-Aug-09 02:33N 37°22' E 025°15'9 9.0
2014-Aug-09 01:33N 37°16' E 025°06'9 9.4
2014-Aug-09 00:33N 37°09' E 024°58'9 9.5
2014-Aug-08 23:33N 37°01' E 024°52'10 9.9
2014-Aug-08 22:33N 36°53' E 024°44'13 0.3
2014-Aug-07 09:08N 36°47' E 024°30'5 5.1
2014-Aug-07 08:14N 36°43' E 024°26'  

Dump ship's entire track history